This is the latest recevied weather packets stored in our database for station/object EB1BWO-11. If no packets are shown the sender has not sent any weather packets the latest 10 day(s).
| Time | Temp. | Humidity | Pressure | Rain* | Wind** | Luminosity | Snow |
|---|---|---|---|---|---|---|---|
| 1788448088 | 31.67° C | 54% | 1024 hPa | - | - | - | - |
| 1788447188 | 35° C | 48% | 1023.9 hPa | - | - | - | - |
| 1788446288 | 42.78° C | 39% | 1023.8 hPa | - | - | - | - |
| 1788445387 | 48.33° C | 33% | 1023.8 hPa | - | - | - | - |
| 1788444487 | 50° C | 31% | 1023.9 hPa | - | - | - | - |
| 1788443587 | 55° C | 28% | 1023.9 hPa | - | - | - | - |
| 1788442687 | 53.89° C | 26% | 1023.9 hPa | - | - | - | - |
| 1788441787 | 52.22° C | 29% | 1024.1 hPa | - | - | - | - |
| 1788440887 | 52.22° C | 26% | 1024.1 hPa | - | - | - | - |
| 1788439987 | 54.44° C | 24% | 1024.2 hPa | - | - | - | - |
| 1788439086 | 53.89° C | 25% | 1024.2 hPa | - | - | - | - |
| 1788438186 | 54.44° C | 25% | 1024.5 hPa | - | - | - | - |
| 1788437286 | 51.11° C | 28% | 1024.7 hPa | - | - | - | - |
| 1788436386 | 48.33° C | 28% | 1024.9 hPa | - | - | - | - |
| 1788435486 | 46.11° C | 30% | 1025.1 hPa | - | - | - | - |
| 1788434585 | 43.33° C | 32% | 1025.3 hPa | - | - | - | - |
| 1788433685 | 40.56° C | 35% | 1025.7 hPa | - | - | - | - |
| 1788432785 | 38.33° C | 39% | 1025.8 hPa | - | - | - | - |
| 1788431885 | 37.22° C | 38% | 1026 hPa | - | - | - | - |
| 1788430984 | 35.56° C | 42% | 1026 hPa | - | - | - | - |
| 1788430084 | 32.78° C | 47% | 1026 hPa | - | - | - | - |
| 1788429184 | 31.11° C | 50% | 1026.1 hPa | - | - | - | - |
| 1788428284 | 29.44° C | 52% | 1026.1 hPa | - | - | - | - |
| 1788427384 | 28.89° C | 52% | 1026.2 hPa | - | - | - | - |
| 1788426484 | 28.33° C | 53% | 1026.1 hPa | - | - | - | - |
* Rain since midnight (hover to see other rain measurements)
** Current wind speed in m/s (hover to see current wind gust speed)